createdAt,value
2018-07-22T00:01:34.956Z,1.37
2018-07-22T00:04:02.411Z,1.10
2018-07-22T00:06:29.979Z,1.30
2018-07-22T00:08:57.544Z,1.30
2018-07-22T00:11:24.998Z,1.30
2018-07-22T00:13:52.484Z,2.03
2018-07-22T00:16:20.729Z,1.40
2018-07-22T00:18:48.183Z,1.67
2018-07-22T00:21:15.642Z,1.70
2018-07-22T00:23:43.153Z,1.40
2018-07-22T00:26:10.614Z,1.67
2018-07-22T00:28:39.677Z,1.83
2018-07-22T00:31:07.171Z,1.60
2018-07-22T00:33:34.724Z,1.47
2018-07-22T00:36:02.285Z,2.10
2018-07-22T00:38:29.740Z,2.10
2018-07-22T00:40:57.216Z,1.73
2018-07-22T00:43:24.717Z,1.77
2018-07-22T00:45:52.949Z,2.00
2018-07-22T00:48:20.537Z,1.80
2018-07-22T00:50:48.026Z,2.13
2018-07-22T00:53:15.566Z,2.03
2018-07-22T00:55:43.796Z,1.90
2018-07-22T00:58:11.262Z,2.17
2018-07-22T01:00:38.769Z,2.40
2018-07-22T01:03:06.321Z,2.30
2018-07-22T01:05:35.555Z,2.87
2018-07-22T01:08:03.783Z,2.40
2018-07-22T01:10:32.120Z,3.27
2018-07-22T01:13:00.359Z,2.70
2018-07-22T01:15:27.922Z,3.10
2018-07-22T01:17:55.533Z,2.87
2018-07-22T01:20:23.764Z,2.67
2018-07-22T01:22:51.251Z,2.90
2018-07-22T01:25:19.501Z,3.33
2018-07-22T01:27:46.963Z,3.77
2018-07-22T01:30:14.430Z,2.40
2018-07-22T01:32:41.895Z,3.00
2018-07-22T01:35:09.360Z,4.80
2018-07-22T01:37:36.816Z,3.90
2018-07-22T01:40:04.279Z,2.77
2018-07-22T01:42:31.770Z,2.57
2018-07-22T01:44:59.308Z,3.30
2018-07-22T01:47:26.771Z,4.60
2018-07-22T01:49:54.235Z,2.87
2018-07-22T01:52:21.693Z,3.40
2018-07-22T01:54:49.180Z,5.40
2018-07-22T01:57:17.411Z,3.90
2018-07-22T01:59:44.879Z,3.90
2018-07-22T02:02:12.341Z,4.30
2018-07-22T02:04:39.803Z,2.83
2018-07-22T02:07:07.282Z,2.70
2018-07-22T02:09:34.769Z,3.03
2018-07-22T02:12:02.220Z,3.27
2018-07-22T02:14:30.457Z,3.33
2018-07-22T02:16:57.928Z,3.10
2018-07-22T02:19:25.381Z,3.50
2018-07-22T02:21:52.835Z,2.70
2018-07-22T02:24:20.499Z,2.87
2018-07-22T02:26:47.960Z,2.83
2018-07-22T02:29:15.421Z,3.57
2018-07-22T02:31:42.888Z,3.00
2018-07-22T02:34:10.350Z,3.30
2018-07-22T02:36:37.805Z,2.93
2018-07-22T02:39:05.318Z,2.73
2018-07-22T02:41:32.880Z,2.40
2018-07-22T02:44:00.460Z,3.30
2018-07-22T02:46:28.017Z,3.47
2018-07-22T02:48:57.019Z,3.57
2018-07-22T02:51:25.314Z,2.43
2018-07-22T02:53:54.264Z,2.73
2018-07-22T02:56:21.745Z,3.63
2018-07-22T02:58:49.212Z,2.97
2018-07-22T03:01:16.676Z,2.47
2018-07-22T03:03:45.657Z,2.90
2018-07-22T03:06:13.105Z,2.47
2018-07-22T03:08:40.584Z,3.00
2018-07-22T03:11:08.053Z,2.83
2018-07-22T03:13:35.654Z,2.60
2018-07-22T03:16:03.119Z,3.00
2018-07-22T03:18:31.346Z,2.50
2018-07-22T03:20:58.831Z,3.03
2018-07-22T03:23:26.397Z,3.17
2018-07-22T03:25:55.374Z,3.17
2018-07-22T03:28:22.837Z,3.27
2018-07-22T03:30:50.319Z,3.10
2018-07-22T03:33:19.284Z,2.73
2018-07-22T03:35:46.768Z,3.00
2018-07-22T03:38:14.229Z,3.00
2018-07-22T03:40:41.792Z,2.70
2018-07-22T03:43:10.364Z,2.20
2018-07-22T03:45:37.839Z,3.27
2018-07-22T03:48:05.324Z,3.10
2018-07-22T03:50:32.821Z,2.67
2018-07-22T03:53:00.294Z,2.37
2018-07-22T03:55:27.747Z,2.60
2018-07-22T03:57:55.217Z,2.77
2018-07-22T04:00:22.673Z,2.47
2018-07-22T04:02:50.176Z,3.00
2018-07-22T04:05:17.624Z,2.73
2018-07-22T04:07:45.088Z,2.43
2018-07-22T04:10:12.571Z,2.67
2018-07-22T04:12:40.039Z,2.77
2018-07-22T04:15:07.488Z,2.63
2018-07-22T04:17:35.055Z,3.13
2018-07-22T04:20:04.175Z,2.67
2018-07-22T04:22:31.711Z,3.20
2018-07-22T04:24:59.152Z,2.43
2018-07-22T04:27:26.615Z,2.57
2018-07-22T04:29:54.104Z,2.40
2018-07-22T04:32:21.667Z,2.60
2018-07-22T04:34:49.227Z,3.07
2018-07-22T04:37:16.791Z,2.50
2018-07-22T04:39:44.239Z,3.00
2018-07-22T04:42:11.728Z,2.90
2018-07-22T04:44:39.959Z,2.67
2018-07-22T04:47:07.470Z,3.20
2018-07-22T04:49:35.712Z,2.13
2018-07-22T04:52:03.190Z,3.50
2018-07-22T04:54:30.643Z,4.20
2018-07-22T04:56:58.144Z,4.03
2018-07-22T04:59:25.613Z,2.33
2018-07-22T05:01:53.074Z,2.33
2018-07-22T05:04:21.334Z,2.90
2018-07-22T05:06:48.902Z,3.40
2018-07-22T05:09:16.365Z,2.40
2018-07-22T05:11:43.810Z,3.37
2018-07-22T05:14:11.276Z,3.43
2018-07-22T05:16:38.736Z,2.57
2018-07-22T05:19:06.197Z,2.77
2018-07-22T05:21:33.647Z,3.47
2018-07-22T05:24:01.112Z,2.93
2018-07-22T05:26:28.556Z,3.67
2018-07-22T05:28:56.063Z,3.10
2018-07-22T05:31:23.524Z,3.57
2018-07-22T05:33:50.996Z,3.00
2018-07-22T05:36:19.218Z,3.00
2018-07-22T05:38:47.195Z,3.37
2018-07-22T05:41:14.647Z,3.13
2018-07-22T05:43:42.159Z,3.00
2018-07-22T05:46:09.719Z,3.03
2018-07-22T05:48:37.287Z,4.03
2018-07-22T05:51:04.750Z,3.40
2018-07-22T05:53:32.220Z,3.17
2018-07-22T05:56:01.195Z,2.53
2018-07-22T05:58:28.866Z,2.23
2018-07-22T06:00:56.317Z,3.03
2018-07-22T06:03:23.771Z,3.87
2018-07-22T06:05:51.243Z,3.40
2018-07-22T06:08:18.696Z,2.67
2018-07-22T06:10:46.153Z,2.77
2018-07-22T06:13:13.608Z,2.90
2018-07-22T06:15:41.991Z,2.70
2018-07-22T06:18:09.439Z,2.20
2018-07-22T06:20:36.963Z,2.07
2018-07-22T06:23:04.435Z,2.40
2018-07-22T06:25:31.988Z,3.37
2018-07-22T06:27:59.453Z,3.00
2018-07-22T06:30:27.719Z,2.50
2018-07-22T06:32:55.284Z,3.17
2018-07-22T06:35:22.784Z,2.50
2018-07-22T06:37:51.010Z,2.90
2018-07-22T06:40:18.492Z,2.27
2018-07-22T06:42:46.052Z,2.43
2018-07-22T06:45:13.505Z,2.50
2018-07-22T06:47:40.996Z,2.27
2018-07-22T06:50:09.953Z,1.90
2018-07-22T06:52:37.415Z,1.97
2018-07-22T06:55:04.873Z,2.70
2018-07-22T06:57:32.366Z,2.67
2018-07-22T06:59:59.816Z,2.33
2018-07-22T07:02:27.289Z,2.27
2018-07-22T07:04:54.865Z,2.30
2018-07-22T07:07:22.311Z,1.83
2018-07-22T07:09:49.781Z,2.10
2018-07-22T07:12:17.342Z,2.57
2018-07-22T07:14:44.909Z,1.90
2018-07-22T07:17:12.360Z,1.90
2018-07-22T07:19:39.828Z,2.20
2018-07-22T07:22:07.292Z,2.20
2018-07-22T07:24:34.770Z,2.10
2018-07-22T07:27:02.989Z,2.20
2018-07-22T07:29:30.451Z,1.93
2018-07-22T07:31:57.924Z,1.80
2018-07-22T07:34:25.645Z,1.60
2018-07-22T07:36:53.072Z,1.80
2018-07-22T07:39:20.548Z,2.00
2018-07-22T07:41:48.006Z,1.60
2018-07-22T07:44:15.534Z,1.90
2018-07-22T07:46:43.037Z,1.60
2018-07-22T07:49:10.604Z,1.70
2018-07-22T07:51:38.071Z,2.10
2018-07-22T07:54:05.532Z,1.90
2018-07-22T07:56:33.047Z,1.80
2018-07-22T07:59:00.543Z,1.80
2018-07-22T08:01:27.995Z,2.30
2018-07-22T08:03:55.484Z,2.37
2018-07-22T08:06:22.987Z,1.53
2018-07-22T08:08:50.490Z,1.80
2018-07-22T08:11:19.214Z,1.97
2018-07-22T08:13:46.661Z,1.97
2018-07-22T08:16:14.130Z,2.27
2018-07-22T08:18:41.588Z,1.80
2018-07-22T08:21:09.049Z,2.70
2018-07-22T08:23:36.499Z,1.93
2018-07-22T08:26:03.969Z,1.97
2018-07-22T08:28:31.427Z,2.60
2018-07-22T08:30:58.923Z,1.87
2018-07-22T08:33:27.148Z,2.37
2018-07-22T08:35:54.601Z,3.00
2018-07-22T08:38:22.062Z,2.63
2018-07-22T08:40:49.566Z,2.30
2018-07-22T08:43:18.536Z,2.23
2018-07-22T08:45:45.987Z,2.83
2018-07-22T08:48:13.443Z,2.27
2018-07-22T08:50:40.935Z,2.70
2018-07-22T08:53:08.459Z,2.43
2018-07-22T08:55:35.859Z,2.53
2018-07-22T08:58:03.333Z,2.90
2018-07-22T09:00:30.798Z,3.40
2018-07-22T09:02:58.255Z,3.03
2018-07-22T09:05:27.279Z,2.87
2018-07-22T09:07:54.699Z,1.93
2018-07-22T09:10:22.159Z,2.23
2018-07-22T09:12:49.628Z,2.37
2018-07-22T09:15:17.089Z,2.70
2018-07-22T09:17:44.597Z,2.20
2018-07-22T09:20:12.029Z,2.67
2018-07-22T09:22:39.494Z,2.70
2018-07-22T09:25:08.469Z,2.97
2018-07-22T09:27:35.936Z,2.13
2018-07-22T09:30:04.096Z,2.50
2018-07-22T09:32:31.559Z,2.70
2018-07-22T09:34:59.047Z,2.27
2018-07-22T09:37:26.619Z,2.70
2018-07-22T09:39:54.843Z,2.47
2018-07-22T09:42:22.323Z,2.70
2018-07-22T09:44:49.776Z,2.10
2018-07-22T09:47:17.235Z,2.67
2018-07-22T09:49:44.695Z,2.50
2018-07-22T09:52:12.147Z,2.07
2018-07-22T09:54:39.675Z,2.27
2018-07-22T09:57:08.656Z,2.50
2018-07-22T09:59:36.125Z,2.30
2018-07-22T10:02:03.686Z,2.47
2018-07-22T10:04:31.160Z,2.50
2018-07-22T10:06:58.712Z,2.63
2018-07-22T10:09:26.277Z,2.20
2018-07-22T10:11:53.854Z,2.13
2018-07-22T10:14:21.434Z,2.40
2018-07-22T10:16:48.876Z,2.40
2018-07-22T10:19:16.340Z,2.33
2018-07-22T10:21:43.803Z,2.20
2018-07-22T10:24:12.795Z,2.20
2018-07-22T10:26:41.790Z,2.40
2018-07-22T10:29:09.349Z,2.33
2018-07-22T10:31:36.810Z,2.23
2018-07-22T10:34:04.264Z,2.43
2018-07-22T10:36:31.731Z,2.20
2018-07-22T10:38:59.295Z,2.57
2018-07-22T10:41:26.745Z,2.17
2018-07-22T10:43:54.209Z,2.47
2018-07-22T10:46:21.671Z,2.50
2018-07-22T10:48:49.131Z,2.20
2018-07-22T10:51:16.587Z,2.20
2018-07-22T10:53:44.035Z,2.60
2018-07-22T10:56:11.513Z,2.60
2018-07-22T10:58:38.990Z,2.13
2018-07-22T11:01:06.500Z,2.67
2018-07-22T11:03:34.740Z,2.43
2018-07-22T11:06:02.312Z,2.23
2018-07-22T11:08:29.770Z,2.60
2018-07-22T11:10:57.344Z,2.77
2018-07-22T11:13:24.800Z,2.50
2018-07-22T11:15:53.772Z,2.43
2018-07-22T11:18:21.251Z,2.30
2018-07-22T11:20:48.817Z,2.83
2018-07-22T11:23:16.378Z,2.80
2018-07-22T11:25:45.027Z,3.73
2018-07-22T11:28:12.537Z,3.60
2018-07-22T11:30:39.996Z,2.83
2018-07-22T11:33:07.553Z,3.03
2018-07-22T11:35:35.119Z,3.63
2018-07-22T11:38:02.567Z,4.03
2018-07-22T11:40:30.028Z,4.17
2018-07-22T11:42:57.471Z,3.90
2018-07-22T11:45:24.933Z,4.23
2018-07-22T11:47:52.432Z,3.97
2018-07-22T11:50:20.020Z,4.53
2018-07-22T11:52:47.566Z,4.40
2018-07-22T11:55:15.026Z,3.60
2018-07-22T11:57:42.484Z,4.57
2018-07-22T12:00:09.979Z,5.23
2018-07-22T12:02:38.230Z,4.63
2018-07-22T12:05:05.810Z,4.00
2018-07-22T12:07:34.804Z,4.90
2018-07-22T12:10:02.248Z,4.57
2018-07-22T12:12:29.723Z,3.83
2018-07-22T12:14:57.178Z,5.77
2018-07-22T12:17:24.738Z,3.97
2018-07-22T12:19:52.200Z,4.37
2018-07-22T12:22:19.756Z,4.43
2018-07-22T12:24:47.219Z,4.57
2018-07-22T12:27:14.675Z,5.33
2018-07-22T12:29:42.157Z,5.40
2018-07-22T12:32:09.607Z,5.97
2018-07-22T12:34:37.070Z,5.57
2018-07-22T12:37:04.528Z,4.90
2018-07-22T12:39:32.042Z,5.57
2018-07-22T12:41:59.519Z,4.60
2018-07-22T12:44:26.996Z,4.53
2018-07-22T12:46:54.457Z,5.60
2018-07-22T12:49:21.931Z,5.50
2018-07-22T12:51:49.423Z,4.33
2018-07-22T12:54:18.386Z,5.47
2018-07-22T12:56:45.842Z,5.83
2018-07-22T12:59:13.338Z,3.77
2018-07-22T13:01:40.839Z,4.90
2018-07-22T13:04:09.068Z,5.47
2018-07-22T13:06:36.601Z,4.40
2018-07-22T13:09:04.064Z,4.00
2018-07-22T13:11:31.569Z,4.27
2018-07-22T13:13:59.138Z,3.53
2018-07-22T13:16:27.416Z,4.43
2018-07-22T13:18:54.924Z,4.27
2018-07-22T13:21:24.765Z,4.20
2018-07-22T13:23:52.200Z,3.77
2018-07-22T13:26:19.668Z,4.63
2018-07-22T13:28:47.194Z,4.17
2018-07-22T13:31:15.466Z,3.40
2018-07-22T13:33:43.049Z,3.67
2018-07-22T13:36:10.521Z,3.73
2018-07-22T13:38:38.769Z,3.70
2018-07-22T13:41:06.331Z,3.67
2018-07-22T13:43:33.820Z,3.17
2018-07-22T13:46:01.240Z,3.90
2018-07-22T13:48:28.710Z,4.10
2018-07-22T13:50:56.284Z,3.50
2018-07-22T13:53:23.762Z,4.63
2018-07-22T13:55:51.318Z,3.33
2018-07-22T13:58:19.935Z,4.07
2018-07-22T14:00:48.170Z,3.53
2018-07-22T14:03:15.744Z,4.30
2018-07-22T14:05:43.206Z,4.50
2018-07-22T14:08:11.498Z,4.63
2018-07-22T14:10:40.496Z,4.63
2018-07-22T14:13:08.044Z,4.20
2018-07-22T14:15:35.544Z,3.70
2018-07-22T14:18:04.484Z,3.03
2018-07-22T14:20:32.040Z,2.90
2018-07-22T14:22:59.539Z,3.47
2018-07-22T14:25:28.523Z,3.13
2018-07-22T14:27:56.033Z,3.10
2018-07-22T14:30:23.558Z,3.53
2018-07-22T14:32:51.122Z,3.37
2018-07-22T14:35:18.585Z,2.67
2018-07-22T14:37:47.560Z,3.23
2018-07-22T14:40:15.563Z,2.63
2018-07-22T14:42:43.060Z,3.60
2018-07-22T14:45:11.295Z,3.70
2018-07-22T14:47:38.791Z,4.17
2018-07-22T14:50:07.392Z,3.80
2018-07-22T14:52:34.868Z,3.70
2018-07-22T14:55:02.329Z,3.00
2018-07-22T14:57:29.794Z,2.80
2018-07-22T14:59:57.265Z,2.80
2018-07-22T15:02:24.751Z,3.27
2018-07-22T15:04:52.206Z,2.97
2018-07-22T15:07:19.700Z,2.50
2018-07-22T15:09:47.156Z,2.87
2018-07-22T15:12:14.698Z,3.30
2018-07-22T15:14:42.175Z,2.53
2018-07-22T15:17:09.795Z,2.80
2018-07-22T15:19:37.267Z,2.80
2018-07-22T15:22:06.245Z,3.00
2018-07-22T15:24:33.711Z,2.40
2018-07-22T15:27:01.232Z,2.10
2018-07-22T15:29:28.860Z,2.07
2018-07-22T15:31:56.341Z,2.30
2018-07-22T15:34:23.916Z,1.83
2018-07-22T15:36:51.364Z,2.00
2018-07-22T15:39:18.835Z,2.10
2018-07-22T15:41:46.303Z,2.27
2018-07-22T15:44:13.866Z,2.67
2018-07-22T15:46:41.312Z,2.00
2018-07-22T15:49:08.797Z,2.30
2018-07-22T15:51:36.254Z,2.30
2018-07-22T15:54:03.703Z,2.20
2018-07-22T15:56:31.164Z,2.17
2018-07-22T15:58:59.115Z,2.30
2018-07-22T16:01:26.576Z,2.20
2018-07-22T16:03:54.070Z,2.10
2018-07-22T16:06:21.535Z,2.33
2018-07-22T16:08:49.020Z,2.40
2018-07-22T16:11:17.280Z,2.40
2018-07-22T16:13:44.746Z,2.20
2018-07-22T16:16:12.213Z,1.83
2018-07-22T16:18:40.492Z,2.40
2018-07-22T16:21:09.464Z,2.30
2018-07-22T16:23:36.939Z,1.93
2018-07-22T16:26:04.387Z,2.70
2018-07-22T16:28:31.861Z,2.37
2018-07-22T16:30:59.353Z,2.20
2018-07-22T16:33:26.798Z,2.37
2018-07-22T16:35:55.029Z,1.97
2018-07-22T16:38:22.492Z,1.97
2018-07-22T16:40:49.943Z,1.90
2018-07-22T16:43:17.460Z,1.67
2018-07-22T16:45:45.023Z,2.07
2018-07-22T16:48:12.481Z,2.10
2018-07-22T16:50:40.058Z,2.10
2018-07-22T16:53:07.514Z,2.07
2018-07-22T16:55:34.970Z,2.00
2018-07-22T16:58:02.423Z,1.80
2018-07-22T17:00:29.910Z,2.33
2018-07-22T17:02:57.368Z,2.13
2018-07-22T17:05:24.824Z,2.30
2018-07-22T17:07:52.283Z,2.03
2018-07-22T17:10:19.730Z,2.33
2018-07-22T17:12:47.237Z,2.37
2018-07-22T17:15:14.771Z,1.93
2018-07-22T17:17:42.335Z,2.43
2018-07-22T17:20:09.903Z,2.33
2018-07-22T17:22:37.457Z,2.57
2018-07-22T17:25:04.925Z,2.20
2018-07-22T17:27:32.385Z,2.23
2018-07-22T17:29:59.855Z,2.63
2018-07-22T17:32:27.417Z,2.33
2018-07-22T17:34:54.866Z,2.40
2018-07-22T17:37:22.444Z,2.47
2018-07-22T17:39:50.007Z,3.13
2018-07-22T17:42:17.575Z,3.60
2018-07-22T17:44:45.033Z,2.63
2018-07-22T17:47:12.492Z,2.80
2018-07-22T17:49:39.963Z,2.50
2018-07-22T17:52:07.435Z,2.20
2018-07-22T17:54:35.059Z,2.23
2018-07-22T17:57:02.651Z,2.23
2018-07-22T17:59:30.236Z,2.30
2018-07-22T18:01:57.699Z,2.07
2018-07-22T18:04:25.247Z,2.30
2018-07-22T18:06:52.799Z,2.23
2018-07-22T18:09:20.258Z,2.40
2018-07-22T18:11:47.721Z,2.23
2018-07-22T18:14:15.213Z,2.43
2018-07-22T18:16:42.662Z,2.00
2018-07-22T18:19:10.120Z,1.70
2018-07-22T18:21:38.365Z,1.97
2018-07-22T18:24:05.811Z,2.17
2018-07-22T18:26:33.292Z,1.70
2018-07-22T18:29:00.720Z,1.83
2018-07-22T18:31:29.703Z,1.60
2018-07-22T18:33:57.237Z,1.57
2018-07-22T18:36:24.708Z,1.80
2018-07-22T18:38:52.227Z,1.80
2018-07-22T18:41:19.735Z,1.80
2018-07-22T18:43:47.203Z,1.70
2018-07-22T18:46:16.173Z,1.87
2018-07-22T18:48:43.649Z,1.60
2018-07-22T18:51:11.116Z,1.50
2018-07-22T18:53:38.581Z,1.70
2018-07-22T18:56:06.040Z,1.60
2018-07-22T18:58:33.505Z,1.60
2018-07-22T19:01:02.499Z,1.40
2018-07-22T19:03:29.958Z,1.60
2018-07-22T19:05:57.524Z,1.50
2018-07-22T19:08:25.084Z,1.30
2018-07-22T19:10:52.555Z,1.63
2018-07-22T19:13:20.785Z,1.80
2018-07-22T19:15:48.247Z,1.37
2018-07-22T19:18:15.754Z,1.60
2018-07-22T19:20:43.324Z,1.50
2018-07-22T19:23:10.890Z,2.40
2018-07-22T19:25:38.356Z,1.67
2018-07-22T19:28:05.913Z,1.60
2018-07-22T19:30:33.383Z,1.80
2018-07-22T19:33:02.379Z,2.03
2018-07-22T19:35:30.605Z,1.73
2018-07-22T19:37:58.075Z,1.80
2018-07-22T19:40:25.614Z,1.63
2018-07-22T19:42:53.144Z,1.60
2018-07-22T19:45:20.625Z,2.17
2018-07-22T19:47:48.081Z,2.00
2018-07-22T19:50:17.015Z,2.00
2018-07-22T19:52:45.223Z,2.00
2018-07-22T19:55:12.783Z,2.00
2018-07-22T19:57:40.261Z,2.20
2018-07-22T20:00:08.856Z,2.00
2018-07-22T20:02:36.311Z,2.13
2018-07-22T20:05:03.789Z,1.73
2018-07-22T20:07:31.245Z,1.40
2018-07-22T20:09:58.803Z,2.13
2018-07-22T20:12:26.267Z,2.40
2018-07-22T20:14:53.761Z,2.50
2018-07-22T20:17:22.023Z,2.10
2018-07-22T20:19:50.243Z,2.23
2018-07-22T20:22:17.716Z,1.80
2018-07-22T20:24:45.214Z,1.87
2018-07-22T20:27:12.775Z,1.83
2018-07-22T20:29:40.224Z,1.70
2018-07-22T20:32:07.728Z,1.90
2018-07-22T20:34:35.187Z,1.80
2018-07-22T20:37:02.727Z,1.63
2018-07-22T20:39:30.192Z,1.67
2018-07-22T20:41:57.663Z,1.80
2018-07-22T20:44:26.640Z,2.30
2018-07-22T20:46:54.117Z,2.00
2018-07-22T20:49:21.630Z,2.00
2018-07-22T20:51:49.136Z,1.83
2018-07-22T20:54:16.618Z,1.93
2018-07-22T20:56:44.887Z,1.87
2018-07-22T20:59:12.340Z,2.03
2018-07-22T21:01:39.800Z,1.80
2018-07-22T21:04:07.276Z,1.90
2018-07-22T21:06:34.747Z,1.93
2018-07-22T21:09:02.196Z,1.63
2018-07-22T21:11:29.665Z,1.80
2018-07-22T21:13:57.136Z,2.07
2018-07-22T21:16:24.681Z,2.33
2018-07-22T21:18:52.245Z,1.90
2018-07-22T21:21:19.821Z,2.10
2018-07-22T21:23:48.047Z,2.10
2018-07-22T21:26:15.514Z,2.07
2018-07-22T21:28:42.978Z,1.50
2018-07-22T21:31:10.436Z,1.97
2018-07-22T21:33:37.929Z,2.30
2018-07-22T21:36:05.370Z,2.43
2018-07-22T21:38:32.858Z,2.47
2018-07-22T21:41:00.435Z,2.10
2018-07-22T21:43:27.984Z,2.20
2018-07-22T21:45:56.021Z,2.40
2018-07-22T21:48:23.540Z,2.20
2018-07-22T21:50:51.772Z,2.23
2018-07-22T21:53:19.277Z,2.00
2018-07-22T21:55:46.744Z,2.43
2018-07-22T21:58:14.208Z,2.00
2018-07-22T22:00:42.439Z,2.10
2018-07-22T22:03:09.888Z,2.33
2018-07-22T22:05:37.358Z,2.57
2018-07-22T22:08:04.815Z,2.40
2018-07-22T22:10:32.274Z,2.00
2018-07-22T22:12:59.786Z,2.50
2018-07-22T22:15:27.247Z,2.20
2018-07-22T22:17:54.823Z,2.43
2018-07-22T22:20:22.376Z,2.50
2018-07-22T22:22:49.946Z,2.47
2018-07-22T22:25:17.399Z,2.43
2018-07-22T22:27:44.880Z,2.10
2018-07-22T22:30:13.108Z,2.23
2018-07-22T22:32:40.574Z,2.40
2018-07-22T22:35:08.042Z,2.70
2018-07-22T22:37:35.497Z,1.93
2018-07-22T22:40:02.961Z,2.60
2018-07-22T22:42:30.445Z,2.00
2018-07-22T22:44:57.907Z,2.23
2018-07-22T22:47:25.354Z,2.10
2018-07-22T22:52:26.756Z,2.23
2018-07-22T22:54:55.032Z,1.87
2018-07-22T22:57:22.498Z,2.30
2018-07-22T22:59:50.059Z,2.20
2018-07-22T23:02:17.633Z,2.10
2018-07-22T23:04:45.869Z,1.83
2018-07-22T23:07:13.328Z,2.30
2018-07-22T23:09:40.791Z,2.00
2018-07-22T23:12:08.263Z,2.50
2018-07-22T23:14:35.763Z,2.30
2018-07-22T23:17:03.992Z,2.60
2018-07-22T23:19:31.457Z,2.20
2018-07-22T23:21:58.918Z,2.30
2018-07-22T23:24:26.382Z,2.40
2018-07-22T23:26:53.915Z,2.37
2018-07-22T23:29:22.182Z,2.40
2018-07-22T23:31:49.722Z,2.20
2018-07-22T23:34:17.291Z,2.40
2018-07-22T23:36:44.854Z,2.47
2018-07-22T23:39:12.316Z,2.50
2018-07-22T23:41:40.622Z,2.30
2018-07-22T23:44:08.070Z,2.50
2018-07-22T23:46:35.539Z,2.30
2018-07-22T23:49:04.605Z,2.33
2018-07-22T23:51:32.079Z,2.33
2018-07-22T23:53:59.548Z,2.07
2018-07-22T23:56:27.023Z,2.10
2018-07-22T23:58:55.246Z,2.40
